Latest Coastal Weather Observations for Milingimbi

IDD60701

Issued at 3:31 am CST Monday 31 August 2015 (issued every 10 minutes, with the page automatically refreshed every 10 minutes)

About coastal observations | Map of coastal stations | Coastal observations for NT | Marine services | Other Formats
Station Details ID: 014404 Name: MILINGIMBI AIRPORT Lat: -12.09 Lon: 134.89 Height: 15.0 m
Data from the previous 72 hours. | See also: Recent months at Milingimbi
Date/Time
CST
Temp

°C
Wind Pressure Rain
since 9am
mm
Weather Cloud Vis
km
Sea
Height
m
Swell
Dir
 
Speed
knots
Gust
knots
hPa Trend Height
m
Period
s
Dir
31/03:30am 21.6 CALM 0 0 1014.0 - 0.0 - - - - - - -
31/03:00am 22.1 CALM 0 0 1014.1 - 0.0 - - - - - - -
31/02:30am 22.5 E 3 5 1014.4 - 0.0 - - - - - - -
31/02:00am 22.0 CALM 0 3 1014.6 - 0.0 - - - - - - -
31/01:30am 22.3 CALM 0 0 1014.7 - 0.0 - - - - - - -
31/01:00am 22.5 CALM 0 0 1015.0 - 0.0 - - - - - - -
31/12:30am 23.7 CALM 0 0 1015.3 - 0.0 - - - - - - -
31/12:00am 24.4 ESE 3 5 1015.4 - 0.0 - - - - - - -
 
Date/Time
CST
Temp

°C
Wind Pressure Rain
since 9am
mm
Weather Cloud Vis
km
Sea
Height
m
Swell
Dir
 
Speed
knots
Gust
knots
hPa Trend Height
m
Period
s
Dir
30/11:30pm 24.8 ESE 3 5 1015.5 - 0.0 - - - - - - -
30/11:00pm 25.0 E 5 7 1015.5 - 0.0 - - - - - - -
30/10:30pm 25.1 E 5 7 1015.6 - 0.0 - - - - - - -
30/10:00pm 25.4 E 5 8 1015.5 - 0.0 - - - - - - -
30/09:30pm 25.5 E 5 8 1015.2 - 0.0 - - - - - - -
30/09:00pm 25.6 ENE 6 10 1014.8 - 0.0 - - - - - - -
30/08:30pm 25.8 ENE 7 11 1014.6 - 0.0 - - - - - - -
30/08:00pm 25.9 NE 6 12 1014.4 - 0.0 - - - - - - -
30/07:30pm 25.9 NE 7 10 1014.0 - 0.0 - - - - - - -
30/07:00pm 25.9 NE 5 9 1013.6 - 0.0 - - - - - - -
30/06:30pm 26.1 NE 7 11 1013.2 - 0.0 - - - - - - -
30/06:00pm 26.7 NNE 6 11 1013.0 - 0.0 - - - - - - -
30/05:30pm 27.2 NNE 8 11 1013.0 - 0.0 - - - - - - -
30/05:00pm 27.7 NNE 8 14 1012.8 - 0.0 - - - - - - -
30/04:30pm 28.4 NNE 8 13 1012.7 - 0.0 - - - - - - -
30/04:00pm 28.9 N 7 13 1012.6 - 0.0 - - - - - - -
30/03:30pm 29.7 NNE 9 14 1012.7 - 0.0 - - - - - - -
30/03:00pm 29.3 NNE 7 14 1012.9 - 0.0 - - - - - - -
30/02:30pm 30.0 NNE 7 12 1013.1 - 0.0 - - - - - - -
30/02:00pm 31.0 NNE 8 13 1013.6 - 0.0 - - - - - - -
30/01:30pm 30.5 NE 8 15 1013.9 - 0.0 - - - - - - -
30/01:00pm 30.7 ENE 7 11 1014.4 - 0.0 - - - - - - -
30/12:30pm 30.0 NE 9 12 1015.1 - 0.0 - - - - - - -
30/12:00pm 30.1 ESE 8 12 1015.4 - 0.0 - - - - - - -
30/11:30am 29.4 E 8 13 1016.1 - 0.0 - - - - - - -
30/11:00am 28.8 ESE 9 14 1016.5 - 0.0 - - - - - - -
30/10:30am 29.1 ESE 8 13 1016.7 - 0.0 - - - - - - -
30/10:00am 28.2 ESE 9 11 1016.7 - 0.0 - - - - - - -
30/09:30am 26.8 ESE 9 13 1016.8 - 0.0 - - - - - - -
30/09:00am 25.5 SE 9 13 1016.6 - 0.0 - - - - - - -
30/08:30am 24.8 SE 7 10 1016.4 - 0.0 - - - - - - -
30/08:00am 23.5 SE 8 11 1016.1 - 0.0 - - - - - - -
30/07:30am 22.5 SSE 5 7 1015.8 - 0.0 - - - - - - -
30/07:00am 21.4 SSE 4 6 1015.5 - 0.0 - - - - - - -
30/06:30am 20.9 SSE 3 4 1015.1 - 0.0 - - - - - - -
30/06:00am 21.1 S 3 4 1014.7 - 0.0 - - - - - - -
30/05:30am 21.2 S 4 6 1014.5 - 0.0 - - - - - - -
30/05:00am 21.4 SSE 3 4 1014.4 - 0.0 - - - - - - -
30/04:30am 21.9 SSE 3 4 1014.2 - 0.0 - - - - - - -
30/04:00am 22.4 SSE 4 6 1014.0 - 0.0 - - - - - - -
30/03:30am 23.5 ESE 5 7 1014.1 - 0.0 - - - - - - -
30/03:00am 23.5 E 5 7 1014.1 - 0.0 - - - - - - -
30/02:30am 23.6 E 5 7 1014.4 - 0.0 - - - - - - -
30/02:00am 23.9 E 5 7 1014.7 - 0.0 - - - - - - -
30/01:30am 24.3 ESE 6 9 1014.8 - 0.0 - - - - - - -
30/01:00am 24.7 ESE 7 11 1015.1 - 0.0 - - - - - - -
30/12:30am 25.2 ESE 9 16 1015.2 - 0.0 - - - - - - -
30/12:00am 25.3 E 9 13 1015.2 - 0.0 - - - - - - -
 
Date/Time
CST
Temp

°C
Wind Pressure Rain
since 9am
mm
Weather Cloud Vis
km
Sea
Height
m
Swell
Dir
 
Speed
knots
Gust
knots
hPa Trend Height
m
Period
s
Dir
29/11:30pm 25.6 E 9 15 1015.3 - 0.0 - - - - - - -
29/11:00pm 25.2 E 5 8 1015.3 - 0.0 - - - - - - -
29/10:30pm 25.4 ENE 7 11 1015.3 - 0.0 - - - - - - -
29/10:00pm 25.5 ENE 6 11 1015.3 - 0.0 - - - - - - -
29/09:30pm 25.5 ENE 5 8 1015.3 - 0.0 - - - - - - -
29/09:00pm 25.7 ENE 6 10 1015.1 - 0.0 - - - - - - -
29/08:30pm 25.8 NE 6 11 1014.9 - 0.0 - - - - - - -
29/08:00pm 25.9 NE 6 9 1014.5 - 0.0 - - - - - - -
29/07:30pm 25.9 NE 5 7 1014.2 - 0.0 - - - - - - -
29/07:00pm 26.1 NE 6 8 1013.7 - 0.0 - - - - - - -
29/06:30pm 26.6 NNE 5 8 1013.4 - 0.0 - - - - - - -
29/06:00pm 27.2 NE 6 10 1013.0 - 0.0 - - - - - - -
29/05:30pm 27.8 NNE 7 11 1012.9 - 0.0 - - - - - - -
29/05:00pm 28.4 NNE 7 10 1012.8 - 0.0 - - - - - - -
29/04:30pm 28.2 N 8 13 1012.7 - 0.0 - - - - - - -
29/04:00pm 28.5 NNE 7 12 1012.7 - 0.0 - - - - - - -
29/03:30pm 28.9 N 7 13 1012.8 - 0.0 - - - - - - -
29/03:00pm 30.0 ENE 7 11 1012.9 - 0.0 - - - - - - -
29/02:30pm 30.2 NE 7 11 1013.5 - 0.0 - - - - - - -
29/02:00pm 29.7 NE 7 14 1014.1 - 0.0 - - - - - - -
29/01:30pm 29.6 E 8 12 1014.6 - 0.0 - - - - - - -
29/01:00pm 29.1 NE 9 13 1015.2 - 0.0 - - - - - - -
29/12:30pm 29.1 NE 7 13 1015.8 - 0.0 - - - - - - -
29/12:00pm 28.8 E 8 13 1016.2 - 0.0 - - - - - - -
29/11:30am 29.1 ESE 8 14 1016.7 - 0.0 - - - - - - -
29/11:00am 27.9 ESE 9 13 1017.2 - 0.0 - - - - - - -
29/10:30am 27.7 ESE 10 17 1017.6 - 0.0 - - - - - - -
29/10:00am 26.8 E 8 13 1017.6 - 0.0 - - - - - - -
29/09:30am 26.6 E 10 15 1017.6 - 0.0 - - - - - - -
29/09:00am 26.0 E 11 18 1017.5 - 0.0 - - - - - - -
29/08:30am 25.4 E 9 15 1017.3 - 0.0 - - - - - - -
29/08:00am 25.1 E 8 14 1016.8 - 0.0 - - - - - - -
29/07:30am 24.3 E 7 13 1016.3 - 0.0 - - - - - - -
29/07:00am 23.5 E 7 9 1015.9 - 0.0 - - - - - - -
29/06:30am 23.5 E 6 10 1015.5 - 0.0 - - - - - - -
29/06:00am 23.2 E 6 9 1015.0 - 0.0 - - - - - - -
29/05:30am 23.1 E 5 10 1014.7 - 0.0 - - - - - - -
29/05:00am 23.1 E 5 7 1014.5 - 0.0 - - - - - - -
29/04:30am 23.1 ESE 5 6 1014.4 - 0.0 - - - - - - -
29/04:00am 23.2 ESE 7 9 1014.5 - 0.0 - - - - - - -
29/03:30am 23.2 ESE 6 9 1014.6 - 0.0 - - - - - - -
29/03:00am 23.0 ESE 5 7 1014.6 - 0.0 - - - - - - -
29/02:30am 23.0 SE 6 8 1014.6 - 0.0 - - - - - - -
29/02:00am 23.5 SE 8 9 1014.7 - 0.0 - - - - - - -
29/01:30am 23.6 SE 7 9 1014.8 - 0.0 - - - - - - -
29/01:00am 23.9 SE 8 10 1015.0 - 0.0 - - - - - - -
29/12:30am 24.1 SE 8 10 1015.2 - 0.0 - - - - - - -
29/12:00am 24.4 SSE 8 10 1015.5 - 0.0 - - - - - - -
 
Date/Time
CST
Temp

°C
Wind Pressure Rain
since 9am
mm
Weather Cloud Vis
km
Sea
Height
m
Swell
Dir
 
Speed
knots
Gust
knots
hPa Trend Height
m
Period
s
Dir
28/11:30pm 24.7 SSE 6 9 1015.7 - 0.0 - - - - - - -
28/11:00pm 25.0 SE 7 10 1015.7 - 0.0 - - - - - - -
28/10:30pm 25.5 SE 6 9 1015.8 - 0.0 - - - - - - -
28/10:00pm 25.2 E 5 7 1015.6 - 0.0 - - - - - - -
28/09:30pm 25.3 ENE 5 6 1015.4 - 0.0 - - - - - - -
28/09:00pm 25.5 E 5 9 1015.0 - 0.0 - - - - - - -
28/08:30pm 25.6 ENE 6 8 1014.9 - 0.0 - - - - - - -
28/08:00pm 25.7 NE 5 8 1014.4 - 0.0 - - - - - - -
28/07:30pm 25.9 NE 6 10 1014.0 - 0.0 - - - - - - -
28/07:00pm 26.1 NE 7 9 1013.6 - 0.0 - - - - - - -
28/06:30pm 26.3 NE 5 9 1013.1 - 0.0 - - - - - - -
28/06:00pm 26.9 NNE 6 11 1012.6 - 0.0 - - - - - - -
28/05:30pm 27.7 NNE 6 11 1012.3 - 0.0 - - - - - - -
28/05:00pm 28.0 NNE 7 12 1012.2 - 0.0 - - - - - - -
28/04:30pm 28.2 NNE 7 11 1012.1 - 0.0 - - - - - - -
28/04:00pm 28.3 N 9 13 1012.2 - 0.0 - - - - - - -
28/03:30pm 29.9 N 8 12 1012.3 - 0.0 - - - - - - -
28/03:00pm 29.8 NNE 8 13 1012.4 - 0.0 - - - - - - -
28/02:30pm 30.5 NE 8 12 1013.0 - 0.0 - - - - - - -
28/02:00pm 30.3 ENE 9 13 1013.4 - 0.0 - - - - - - -
28/01:30pm 29.9 ENE 9 14 1013.9 - 0.0 - - - - - - -
28/01:00pm 29.8 NE 9 12 1014.4 - 0.0 - - - - - - -
28/12:30pm 29.6 ESE 9 13 1015.0 - 0.0 - - - - - - -
28/12:00pm 29.4 E 9 13 1015.5 - 0.0 - - - - - - -
28/11:30am 29.5 E 9 14 1016.1 - 0.0 - - - - - - -
28/11:00am 28.5 E 10 14 1016.5 - 0.0 - - - - - - -
28/10:30am 28.7 E 8 13 1016.7 - 0.0 - - - - - - -
28/10:00am 28.2 ESE 10 14 1016.7 - 0.0 - - - - - - -
28/09:30am 27.7 E 9 15 1016.6 - 0.0 - - - - - - -
28/09:00am 26.8 E 8 12 1016.3 - 0.0 - - - - - - -
28/08:30am 25.9 E 8 13 1015.9 - 0.0 - - - - - - -
28/08:00am 25.2 E 7 12 1015.7 - 0.0 - - - - - - -
28/07:30am 24.4 E 6 11 1015.6 - 0.0 - - - - - - -
28/07:00am 23.5 E 5 9 1015.5 - 0.0 - - - - - - -
28/06:30am 23.1 ESE 6 9 1015.2 - 0.0 - - - - - - -
28/06:00am 21.6 ESE 5 6 1014.6 - 0.0 - - - - - - -
28/05:30am 21.3 ESE 4 5 1014.6 - 0.0 - - - - - - -
28/05:00am 21.1 CALM 0 0 1014.4 - 0.0 - - - - - - -
28/04:30am 21.7 SE 4 5 1014.4 - 0.0 - - - - - - -
28/04:00am 22.0 SSE 4 6 1014.4 - 0.0 - - - - - - -

Other Formats:

Comma delimited format used in spreadsheet applications
http://www.bom.gov.au/fwo/IDD60701/IDD60701.94140.axf

JavaScript Object Notation format (JSON) in row-major order
http://www.bom.gov.au/fwo/IDD60701/IDD60701.94140.json